createdAt,value
2022-10-09T00:01:28.613Z,101059.94
2022-10-09T00:03:56.900Z,101053.88
2022-10-09T00:06:27.634Z,101056.59
2022-10-09T00:08:54.693Z,101058.31
2022-10-09T00:11:25.722Z,101060.97
2022-10-09T00:13:54.386Z,101057.53
2022-10-09T00:16:23.575Z,101061.94
2022-10-09T00:18:51.272Z,101057.63
2022-10-09T00:21:19.957Z,101062.94
2022-10-09T00:23:47.570Z,101068.25
2022-10-09T00:26:17.091Z,101055.97
2022-10-09T00:28:44.753Z,101057.69
2022-10-09T00:31:15.311Z,101059.47
2022-10-09T00:33:43.000Z,101062.22
2022-10-09T00:36:17.061Z,101046.41
2022-10-09T00:38:44.259Z,101043.00
2022-10-09T00:41:17.154Z,101040.28
2022-10-09T00:43:52.140Z,101051.78
2022-10-09T00:46:33.635Z,101047.41
2022-10-09T00:49:11.678Z,101044.84
2022-10-09T00:51:41.856Z,101039.69
2022-10-09T00:54:12.759Z,101043.19
2022-10-09T00:56:40.349Z,101030.06
2022-10-09T00:59:12.242Z,101033.66
2022-10-09T01:01:41.393Z,101038.88
2022-10-09T01:04:08.706Z,101038.88
2022-10-09T01:07:19.011Z,101038.03
2022-10-09T01:10:12.890Z,101042.44
2022-10-09T01:12:55.199Z,101046.88
2022-10-09T01:15:35.855Z,101037.31
2022-10-09T01:18:11.403Z,101036.38
2022-10-09T01:21:00.645Z,101039.03
2022-10-09T01:23:30.804Z,101054.03
2022-10-09T01:26:16.669Z,101044.38
2022-10-09T01:28:51.453Z,101036.47
2022-10-09T01:31:20.934Z,101033.84
2022-10-09T01:33:48.635Z,101023.38
2022-10-09T01:36:17.030Z,101029.50
2022-10-09T01:38:45.655Z,101029.53
2022-10-09T01:41:12.813Z,101026.94
2022-10-09T01:43:41.165Z,101033.97
2022-10-09T01:46:32.320Z,101033.97
2022-10-09T01:49:14.607Z,101026.13
2022-10-09T01:51:57.285Z,101027.00
2022-10-09T01:55:05.199Z,101033.22
2022-10-09T01:57:55.457Z,101025.41
2022-10-09T02:00:22.843Z,101026.31
2022-10-09T02:02:53.413Z,101020.28
2022-10-09T02:05:25.853Z,101028.19
2022-10-09T02:07:55.177Z,101023.88
2022-10-09T02:10:24.295Z,101019.44
2022-10-09T02:12:55.305Z,101020.38
2022-10-09T02:15:27.018Z,101026.50
2022-10-09T02:17:59.297Z,101021.28
2022-10-09T02:20:34.816Z,101024.81
2022-10-09T02:23:06.066Z,101025.59
2022-10-09T02:25:33.777Z,101021.22
2022-10-09T02:28:01.751Z,101029.97
2022-10-09T02:30:42.346Z,101025.59
2022-10-09T02:33:09.623Z,101023.00
2022-10-09T02:35:38.444Z,101022.22
2022-10-09T02:38:05.378Z,101032.69
2022-10-09T02:40:32.661Z,101028.41
2022-10-09T02:42:59.616Z,101042.47
2022-10-09T02:45:26.715Z,101028.50
2022-10-09T02:47:54.152Z,101039.06
2022-10-09T02:50:21.107Z,101032.06
2022-10-09T02:52:48.337Z,101025.09
2022-10-09T02:55:15.978Z,101026.03
2022-10-09T02:57:43.432Z,101039.16
2022-10-09T03:00:11.044Z,101029.59
2022-10-09T03:02:38.366Z,101027.84
2022-10-09T03:05:05.961Z,101034.03
2022-10-09T03:07:32.923Z,101033.19
2022-10-09T03:10:00.267Z,101033.19
2022-10-09T03:12:27.324Z,101032.34
2022-10-09T03:14:54.702Z,101034.22
2022-10-09T03:17:22.056Z,101030.69
2022-10-09T03:19:49.093Z,101042.16
2022-10-09T03:22:17.190Z,101036.09
2022-10-09T03:24:44.413Z,101037.84
2022-10-09T03:27:12.623Z,101042.22
2022-10-09T03:29:39.714Z,101041.34
2022-10-09T03:32:07.051Z,101038.72
2022-10-09T03:34:34.140Z,101041.31
2022-10-09T03:37:04.113Z,101045.72
2022-10-09T03:39:33.914Z,101046.63
2022-10-09T03:42:00.915Z,101032.66
2022-10-09T03:44:27.994Z,101035.25
2022-10-09T03:46:55.380Z,101046.66
2022-10-09T03:49:22.506Z,101046.69
2022-10-09T03:51:49.480Z,101045.81
2022-10-09T03:54:17.071Z,101053.81
2022-10-09T03:56:46.579Z,101042.38
2022-10-09T03:59:16.959Z,101042.38
2022-10-09T04:01:44.536Z,101045.88
2022-10-09T04:04:12.159Z,101042.28
2022-10-09T04:06:39.131Z,101045.78
2022-10-09T04:09:07.000Z,101042.31
2022-10-09T04:11:34.097Z,101050.28
2022-10-09T04:14:01.435Z,101047.69
2022-10-09T04:16:28.772Z,101052.03
2022-10-09T04:18:55.894Z,101060.88
2022-10-09T04:21:22.900Z,101063.50
2022-10-09T04:23:53.688Z,101053.84
2022-10-09T04:26:20.721Z,101060.88
2022-10-09T04:28:48.026Z,101060.03
2022-10-09T04:31:15.425Z,101053.91
2022-10-09T04:33:42.562Z,101062.75
2022-10-09T04:36:09.685Z,101062.69
2022-10-09T04:38:37.322Z,101073.25
2022-10-09T04:41:06.973Z,101060.16
2022-10-09T04:43:35.071Z,101066.28
2022-10-09T04:46:07.134Z,101074.19
2022-10-09T04:48:42.259Z,101079.50
2022-10-09T04:51:10.269Z,101075.03
2022-10-09T04:53:39.639Z,101084.69
2022-10-09T04:56:10.759Z,101080.28
2022-10-09T04:58:40.763Z,101082.94
2022-10-09T05:01:12.547Z,101091.69
2022-10-09T05:03:40.135Z,101082.00
2022-10-09T05:06:10.249Z,101090.75
2022-10-09T05:08:38.500Z,101092.50
2022-10-09T05:11:08.603Z,101087.19
2022-10-09T05:13:40.366Z,101085.41
2022-10-09T05:16:10.734Z,101092.34
2022-10-09T05:18:45.940Z,101090.56
2022-10-09T05:21:14.290Z,101092.25
2022-10-09T05:23:42.474Z,101101.84
2022-10-09T05:26:14.215Z,101095.63
2022-10-09T05:28:42.895Z,101089.31
2022-10-09T05:31:17.965Z,101093.63
2022-10-09T05:33:47.199Z,101094.34
2022-10-09T05:36:15.794Z,101091.69
2022-10-09T05:38:43.284Z,101089.78
2022-10-09T05:41:13.696Z,101093.09
2022-10-09T05:43:45.928Z,101088.59
2022-10-09T05:49:07.459Z,101084.75
2022-10-09T05:51:37.884Z,101079.34
2022-10-09T05:54:07.036Z,101088.78
2022-10-09T05:56:42.195Z,101103.47
2022-10-09T05:59:14.984Z,101112.13
2022-10-09T06:01:45.011Z,101116.28
2022-10-09T06:04:19.101Z,101106.53
2022-10-09T06:06:49.759Z,101114.19
2022-10-09T06:09:20.050Z,101116.56
2022-10-09T06:11:48.645Z,101109.44
2022-10-09T06:14:15.721Z,101119.63
2022-10-09T06:16:47.905Z,101107.91
2022-10-09T06:19:20.409Z,101119.97
2022-10-09T06:21:50.641Z,101114.53
2022-10-09T06:24:28.233Z,101113.50
2022-10-09T06:27:09.193Z,101113.25
2022-10-09T06:29:50.386Z,101117.47
2022-10-09T06:32:30.936Z,101106.78
2022-10-09T06:34:58.212Z,101116.19
2022-10-09T06:37:25.747Z,101125.56
2022-10-09T06:40:00.187Z,101120.84
2022-10-09T06:42:28.389Z,101127.41
2022-10-09T06:44:59.524Z,101112.16
2022-10-09T06:47:31.420Z,101117.72
2022-10-09T06:50:02.466Z,101118.34
2022-10-09T06:52:32.986Z,101127.66
2022-10-09T06:55:00.655Z,101126.47
2022-10-09T06:57:28.269Z,101120.00
2022-10-09T06:59:55.461Z,101118.75
2022-10-09T07:02:25.103Z,101126.25
2022-10-09T07:04:57.512Z,101124.06
2022-10-09T07:07:32.222Z,101125.47
2022-10-09T07:10:06.392Z,101119.56
2022-10-09T07:12:38.101Z,101105.31
2022-10-09T07:15:07.011Z,101125.03
2022-10-09T07:17:37.400Z,101110.72
2022-10-09T07:20:13.291Z,101122.59
2022-10-09T07:22:48.359Z,101121.28
2022-10-09T07:25:17.424Z,101119.81
2022-10-09T07:27:51.930Z,101114.00
2022-10-09T07:30:24.812Z,101125.72
2022-10-09T07:32:55.983Z,101126.16
2022-10-09T07:35:32.550Z,101111.56
2022-10-09T07:38:03.057Z,101106.69
2022-10-09T07:40:30.646Z,101104.97
2022-10-09T07:43:00.574Z,101111.13
2022-10-09T07:45:35.157Z,101116.56
2022-10-09T07:48:02.968Z,101116.59
2022-10-09T07:55:58.320Z,101103.47
2022-10-09T07:58:25.694Z,101117.50
2022-10-09T08:00:55.781Z,101095.47
2022-10-09T08:03:25.077Z,101103.66
2022-10-09T08:05:59.098Z,101103.22
2022-10-09T08:08:29.669Z,101106.81
2022-10-09T08:10:57.790Z,101107.16
2022-10-09T08:13:25.055Z,101102.25
2022-10-09T08:15:57.850Z,101099.75
2022-10-09T08:18:29.331Z,101096.22
2022-10-09T08:21:04.619Z,101098.75
2022-10-09T08:26:16.389Z,101097.47
2022-10-09T08:31:27.056Z,101095.41
2022-10-09T08:33:56.504Z,101093.13
2022-10-09T08:36:24.005Z,101094.94
2022-10-09T08:38:52.328Z,101079.63
2022-10-09T08:41:38.807Z,101090.22
2022-10-09T08:44:24.318Z,101084.16
2022-10-09T08:47:15.550Z,101085.31
2022-10-09T08:50:20.790Z,101088.59
2022-10-09T08:52:58.489Z,101082.44
2022-10-09T08:55:55.072Z,101087.25
2022-10-09T08:58:40.086Z,101085.91
2022-10-09T09:01:22.273Z,101088.34
2022-10-09T09:03:50.098Z,101088.84
2022-10-09T09:06:22.496Z,101087.47
2022-10-09T09:09:27.597Z,101081.38
2022-10-09T09:12:05.376Z,101083.56
2022-10-09T09:15:16.208Z,101090.41
2022-10-09T09:17:59.871Z,101074.41
2022-10-09T09:20:39.701Z,101085.41
2022-10-09T09:23:15.600Z,101074.69
2022-10-09T09:25:52.209Z,101076.03
2022-10-09T09:28:29.683Z,101073.66
2022-10-09T09:31:02.231Z,101076.16
2022-10-09T09:33:50.754Z,101079.41
2022-10-09T09:36:25.632Z,101077.19
2022-10-09T09:42:47.085Z,101072.72
2022-10-09T09:48:40.023Z,101067.31
2022-10-09T09:51:28.490Z,101073.72
2022-10-09T09:54:00.362Z,101087.47
2022-10-09T09:59:36.262Z,101079.44
2022-10-09T10:02:20.302Z,101089.63
2022-10-09T10:04:56.525Z,101081.72
2022-10-09T10:07:35.513Z,101075.91
2022-10-09T10:10:13.726Z,101079.84
2022-10-09T10:12:52.399Z,101092.34
2022-10-09T10:15:19.842Z,101089.38
2022-10-09T10:17:50.062Z,101072.50
2022-10-09T10:20:21.269Z,101071.69
2022-10-09T10:22:54.498Z,101071.81
2022-10-09T10:25:28.103Z,101076.47
2022-10-09T10:28:06.186Z,101064.97
2022-10-09T10:30:35.998Z,101054.28
2022-10-09T10:33:27.701Z,101049.75
2022-10-09T10:35:58.531Z,101042.84
2022-10-09T10:38:40.023Z,101043.78
2022-10-09T10:41:26.242Z,101056.09
2022-10-09T10:44:02.142Z,101058.13
2022-10-09T10:46:49.689Z,101046.84
2022-10-09T10:49:22.139Z,101048.69
2022-10-09T10:52:23.323Z,101047.28
2022-10-09T10:55:20.517Z,101041.16
2022-10-09T10:58:12.340Z,101036.22
2022-10-09T11:01:05.574Z,101032.72
2022-10-09T11:04:12.488Z,101039.41
2022-10-09T11:07:01.473Z,101034.50
2022-10-09T11:09:44.018Z,101028.69
2022-10-09T11:12:46.787Z,101022.00
2022-10-09T11:15:48.922Z,101029.56
2022-10-09T11:18:53.777Z,101029.25
2022-10-09T11:21:33.355Z,101022.47
2022-10-09T11:24:27.304Z,101028.84
2022-10-09T11:27:10.886Z,101021.38
2022-10-09T11:29:47.617Z,101017.81
2022-10-09T11:32:22.948Z,101019.50
2022-10-09T11:35:25.428Z,101014.88
2022-10-09T11:38:24.318Z,101024.06
2022-10-09T11:40:54.600Z,101021.66
2022-10-09T11:43:28.637Z,101029.81
2022-10-09T11:46:30.892Z,101031.31
2022-10-09T11:52:39.438Z,101031.78
2022-10-09T11:55:40.739Z,101027.53
2022-10-09T11:58:23.366Z,101014.81
2022-10-09T12:00:56.040Z,101017.63
2022-10-09T12:04:06.106Z,101022.56
2022-10-09T12:06:46.920Z,101024.97
2022-10-09T12:09:36.669Z,101007.88
2022-10-09T12:12:22.134Z,101018.00
2022-10-09T12:14:51.972Z,101002.47
2022-10-09T12:17:22.286Z,101019.06
2022-10-09T12:20:01.061Z,101015.31
2022-10-09T12:23:07.373Z,101019.97
2022-10-09T12:25:43.788Z,101017.72
2022-10-09T12:28:20.525Z,101020.16
2022-10-09T12:30:49.222Z,101011.03
2022-10-09T12:33:56.398Z,101027.31
2022-10-09T12:36:38.449Z,101019.44
2022-10-09T12:42:24.309Z,101014.41
2022-10-09T12:44:54.218Z,101017.00
2022-10-09T12:47:28.903Z,101019.91
2022-10-09T12:50:25.381Z,101016.44
2022-10-09T12:53:00.314Z,101001.66
2022-10-09T12:55:41.867Z,101014.03
2022-10-09T12:58:20.204Z,101003.50
2022-10-09T13:00:50.219Z,101010.50
2022-10-09T13:03:23.734Z,101027.25
2022-10-09T13:05:51.662Z,101013.00
2022-10-09T13:08:34.098Z,101010.38
2022-10-09T13:11:10.371Z,101006.63
2022-10-09T13:13:43.918Z,101009.53
2022-10-09T13:16:10.981Z,101009.53
2022-10-09T13:18:38.534Z,101009.31
2022-10-09T13:21:29.136Z,101006.50
2022-10-09T13:24:13.593Z,101015.72
2022-10-09T13:26:43.232Z,101017.31
2022-10-09T13:29:13.753Z,101020.75
2022-10-09T13:31:43.991Z,101018.41
2022-10-09T13:34:14.787Z,101019.69
2022-10-09T13:36:42.065Z,101024.22
2022-10-09T13:39:15.362Z,101024.97
2022-10-09T13:41:46.379Z,101024.00
2022-10-09T13:44:13.488Z,101017.84
2022-10-09T13:46:41.655Z,101019.78
2022-10-09T13:51:57.952Z,101030.84
2022-10-09T13:54:25.720Z,101030.09
2022-10-09T13:57:02.814Z,101037.53
2022-10-09T14:02:28.567Z,101027.94
2022-10-09T14:04:57.201Z,101032.72
2022-10-09T14:07:24.195Z,101032.91
2022-10-09T14:09:52.021Z,101032.31
2022-10-09T14:12:19.426Z,101038.88
2022-10-09T14:14:46.492Z,101030.38
2022-10-09T14:17:13.563Z,101040.84
2022-10-09T14:19:41.114Z,101039.50
2022-10-09T14:22:08.085Z,101023.31
2022-10-09T14:24:35.977Z,101024.81
2022-10-09T14:27:03.730Z,101044.44
2022-10-09T14:29:30.949Z,101044.34
2022-10-09T14:31:58.045Z,101034.06
2022-10-09T14:34:25.424Z,101037.72
2022-10-09T14:36:52.715Z,101041.59
2022-10-09T14:39:20.139Z,101048.19
2022-10-09T14:41:47.259Z,101040.75
2022-10-09T14:44:15.305Z,101048.72
2022-10-09T14:46:42.602Z,101043.13
2022-10-09T14:49:10.962Z,101053.00
2022-10-09T14:51:39.733Z,101052.59
2022-10-09T14:54:08.214Z,101051.59
2022-10-09T14:56:37.029Z,101065.28
2022-10-09T14:59:06.305Z,101060.94
2022-10-09T15:01:35.037Z,101066.09
2022-10-09T15:04:03.784Z,101054.22
2022-10-09T15:06:31.028Z,101058.84
2022-10-09T15:09:04.638Z,101058.41
2022-10-09T15:11:34.346Z,101063.03
2022-10-09T15:14:05.232Z,101070.50
2022-10-09T15:16:33.346Z,101085.97
2022-10-09T15:19:01.090Z,101086.38
2022-10-09T15:21:31.957Z,101087.75
2022-10-09T15:24:00.994Z,101098.25
2022-10-09T15:26:30.008Z,101105.66
2022-10-09T15:28:58.107Z,101108.72
2022-10-09T15:31:32.403Z,101113.34
2022-10-09T15:34:18.491Z,101110.38
2022-10-09T15:36:47.516Z,101123.25
2022-10-09T15:39:15.340Z,101129.81
2022-10-09T15:44:42.922Z,101129.88
2022-10-09T15:47:13.601Z,101135.13
2022-10-09T15:58:26.228Z,101160.56
2022-10-09T16:00:53.894Z,101171.94
2022-10-09T16:03:37.134Z,101174.47
2022-10-09T16:06:14.829Z,101192.69
2022-10-09T16:08:43.001Z,101177.44
2022-10-09T16:11:11.244Z,101204.47
2022-10-09T16:13:40.933Z,101195.31
2022-10-09T16:16:15.913Z,101217.78
2022-10-09T16:18:46.778Z,101220.81
2022-10-09T16:21:23.469Z,101228.28
2022-10-09T16:23:55.861Z,101221.53
2022-10-09T16:26:27.715Z,101232.53
2022-10-09T16:31:46.627Z,101228.00
2022-10-09T16:34:20.429Z,101220.63
2022-10-09T16:36:47.611Z,101236.19
2022-10-09T16:39:15.077Z,101253.31
2022-10-09T16:41:45.554Z,101253.53
2022-10-09T16:44:45.511Z,101260.06
2022-10-09T16:47:14.595Z,101248.09
2022-10-09T16:49:41.846Z,101254.03
2022-10-09T16:52:31.878Z,101242.59
2022-10-09T16:55:03.765Z,101255.50
2022-10-09T16:57:30.955Z,101264.91
2022-10-09T16:59:58.543Z,101266.69
2022-10-09T17:02:27.191Z,101281.03
2022-10-09T17:04:54.661Z,101269.94
2022-10-09T17:07:23.980Z,101277.06
2022-10-09T17:09:52.918Z,101283.56
2022-10-09T17:12:20.565Z,101278.66
2022-10-09T17:17:32.842Z,101284.38
2022-10-09T17:20:02.853Z,101294.31
2022-10-09T17:22:34.784Z,101292.66
2022-10-09T17:25:02.149Z,101285.94
2022-10-09T17:27:29.635Z,101291.19
2022-10-09T17:32:54.749Z,101284.44
2022-10-09T17:35:21.911Z,101292.38
2022-10-09T17:38:02.410Z,101306.63
2022-10-09T17:40:39.923Z,101307.56
2022-10-09T17:43:10.734Z,101303.94
2022-10-09T17:45:43.132Z,101307.78
2022-10-09T17:48:13.968Z,101312.91
2022-10-09T17:50:42.664Z,101320.09
2022-10-09T17:53:17.740Z,101313.13
2022-10-09T17:55:47.670Z,101309.44
2022-10-09T17:58:15.888Z,101319.00
2022-10-09T18:01:09.726Z,101310.03
2022-10-09T18:03:38.423Z,101325.94
2022-10-09T18:06:08.124Z,101335.72
2022-10-09T18:08:36.377Z,101327.97
2022-10-09T18:13:53.123Z,101325.81
2022-10-09T18:16:25.360Z,101329.41
2022-10-09T18:18:52.548Z,101325.06
2022-10-09T18:21:19.927Z,101320.59
2022-10-09T18:23:50.545Z,101332.31
2022-10-09T18:26:40.982Z,101342.28
2022-10-09T18:29:11.578Z,101340.06
2022-10-09T18:31:46.821Z,101334.72
2022-10-09T18:34:18.290Z,101337.00
2022-10-09T18:36:45.409Z,101350.22
2022-10-09T18:42:06.464Z,101358.75
2022-10-09T18:44:41.363Z,101372.34
2022-10-09T18:47:14.671Z,101366.47
2022-10-09T18:49:45.737Z,101360.47
2022-10-09T18:52:21.359Z,101371.16
2022-10-09T18:54:54.051Z,101358.13
2022-10-09T18:57:23.252Z,101368.97
2022-10-09T18:59:53.561Z,101365.66
2022-10-09T19:05:08.385Z,101375.72
2022-10-09T19:07:35.576Z,101382.03
2022-10-09T19:10:04.751Z,101393.53
2022-10-09T19:12:32.357Z,101393.63
2022-10-09T19:15:30.720Z,101390.38
2022-10-09T19:17:58.245Z,101394.84
2022-10-09T19:20:29.191Z,101398.69
2022-10-09T19:22:59.368Z,101409.53
2022-10-09T19:25:26.870Z,101415.63
2022-10-09T19:28:20.158Z,101416.56
2022-10-09T19:30:50.244Z,101414.28
2022-10-09T19:33:19.137Z,101397.56
2022-10-09T19:36:05.370Z,101417.88
2022-10-09T19:38:37.634Z,101413.91
2022-10-09T19:41:07.228Z,101420.31
2022-10-09T19:43:35.697Z,101411.69
2022-10-09T19:46:10.218Z,101429.47
2022-10-09T19:48:52.608Z,101424.44
2022-10-09T19:51:28.184Z,101426.53
2022-10-09T19:53:55.571Z,101445.09
2022-10-09T19:56:26.309Z,101440.75
2022-10-09T19:58:54.452Z,101434.97
2022-10-09T20:01:24.421Z,101442.34
2022-10-09T20:04:00.643Z,101454.66
2022-10-09T20:06:29.211Z,101459.25
2022-10-09T20:08:57.141Z,101461.22
2022-10-09T20:11:26.488Z,101454.28
2022-10-09T20:13:56.617Z,101458.84
2022-10-09T20:16:25.232Z,101461.69
2022-10-09T20:18:54.727Z,101464.47
2022-10-09T20:21:22.056Z,101459.31
2022-10-09T20:23:49.147Z,101461.19
2022-10-09T20:26:18.729Z,101457.16
2022-10-09T20:28:47.175Z,101471.19
2022-10-09T20:31:17.950Z,101474.84
2022-10-09T20:33:46.657Z,101474.13
2022-10-09T20:36:35.534Z,101481.41
2022-10-09T20:39:06.755Z,101485.09
2022-10-09T20:41:34.428Z,101470.16
2022-10-09T20:44:02.937Z,101485.22
2022-10-09T20:46:32.164Z,101484.59
2022-10-09T20:48:59.753Z,101489.94
2022-10-09T20:51:27.027Z,101482.16
2022-10-09T20:54:02.954Z,101488.50
2022-10-09T20:56:33.013Z,101493.78
2022-10-09T20:59:02.288Z,101505.38
2022-10-09T21:01:30.791Z,101502.88
2022-10-09T21:03:59.326Z,101518.88
2022-10-09T21:06:26.884Z,101518.88
2022-10-09T21:08:53.911Z,101518.16
2022-10-09T21:11:21.902Z,101523.53
2022-10-09T21:13:49.947Z,101515.63
2022-10-09T21:16:23.981Z,101533.44
2022-10-09T21:19:01.947Z,101524.69
2022-10-09T21:21:34.191Z,101519.56
2022-10-09T21:24:01.312Z,101522.28
2022-10-09T21:26:30.600Z,101533.09
2022-10-09T21:28:59.846Z,101533.16
2022-10-09T21:31:30.182Z,101526.19
2022-10-09T21:34:00.047Z,101543.00
2022-10-09T21:36:27.245Z,101527.94
2022-10-09T21:38:54.722Z,101534.38
2022-10-09T21:41:23.157Z,101525.66
2022-10-09T21:43:52.459Z,101529.34
2022-10-09T21:46:22.056Z,101525.00
2022-10-09T21:48:49.342Z,101530.44
2022-10-09T21:51:17.731Z,101521.78
2022-10-09T21:53:45.371Z,101516.63
2022-10-09T21:56:12.844Z,101525.41
2022-10-09T21:58:41.432Z,101526.25
2022-10-09T22:01:11.346Z,101527.28
2022-10-09T22:03:38.704Z,101516.69
2022-10-09T22:06:09.198Z,101537.97
2022-10-09T22:08:36.912Z,101538.94
2022-10-09T22:11:07.909Z,101527.66
2022-10-09T22:13:35.453Z,101538.31
2022-10-09T22:16:12.288Z,101540.97
2022-10-09T22:18:39.707Z,101536.66
2022-10-09T22:21:15.826Z,101538.63
2022-10-09T22:23:44.722Z,101556.41
2022-10-09T22:26:16.193Z,101556.44
2022-10-09T22:28:43.801Z,101554.00
2022-10-09T22:31:20.103Z,101558.47
2022-10-09T22:33:58.644Z,101556.03
2022-10-09T22:36:30.318Z,101564.94
2022-10-09T22:38:59.934Z,101570.34
2022-10-09T22:41:29.227Z,101567.84
2022-10-09T22:43:58.122Z,101563.44
2022-10-09T22:46:29.108Z,101561.91
2022-10-09T22:48:56.247Z,101558.44
2022-10-09T22:51:26.280Z,101563.88
2022-10-09T22:53:54.959Z,101569.28
2022-10-09T22:56:28.017Z,101557.06
2022-10-09T22:58:56.385Z,101560.75
2022-10-09T23:01:33.163Z,101567.91
2022-10-09T23:04:04.863Z,101574.06
2022-10-09T23:06:33.584Z,101569.78
2022-10-09T23:09:01.047Z,101575.25
2022-10-09T23:11:30.171Z,101576.13
2022-10-09T23:13:59.282Z,101570.97
2022-10-09T23:16:28.352Z,101578.09
2022-10-09T23:18:57.913Z,101588.91
2022-10-09T23:21:28.488Z,101596.88
2022-10-09T23:23:55.897Z,101595.22
2022-10-09T23:26:26.671Z,101590.94
2022-10-09T23:28:59.992Z,101590.13
2022-10-09T23:31:28.301Z,101597.28
2022-10-09T23:33:57.131Z,101602.69
2022-10-09T23:36:27.046Z,101606.44
2022-10-09T23:38:55.427Z,101607.38
2022-10-09T23:41:24.563Z,101610.06
2022-10-09T23:43:53.171Z,101613.59
2022-10-09T23:46:34.593Z,101619.88
2022-10-09T23:49:04.648Z,101619.97
2022-10-09T23:51:31.963Z,101612.16
2022-10-09T23:53:59.893Z,101610.50
2022-10-09T23:56:30.327Z,101617.63
2022-10-09T23:59:00.198Z,101616.88
